createdAt,value
2023-04-25T00:00:00.374Z,12.03
2023-04-25T00:05:03.370Z,11.97
2023-04-25T00:10:06.042Z,11.79
2023-04-25T00:15:08.120Z,11.34
2023-04-25T00:20:10.696Z,11.59
2023-04-25T00:25:12.289Z,11.77
2023-04-25T00:30:14.471Z,11.92
2023-04-25T00:35:16.106Z,11.91
2023-04-25T00:40:17.756Z,11.97
2023-04-25T00:45:19.853Z,11.94
2023-04-25T00:50:21.906Z,11.88
2023-04-25T00:55:23.587Z,11.81
2023-04-25T01:00:25.197Z,11.66
2023-04-25T01:05:26.765Z,11.72
2023-04-25T01:10:28.553Z,11.60
2023-04-25T01:15:30.271Z,11.62
2023-04-25T01:20:33.658Z,11.38
2023-04-25T01:25:35.620Z,11.50
2023-04-25T01:30:37.381Z,11.42
2023-04-25T01:35:41.307Z,11.35
2023-04-25T01:40:43.100Z,11.18
2023-04-25T01:45:44.889Z,11.36
2023-04-25T01:50:49.383Z,11.25
2023-04-25T01:55:51.023Z,11.13
2023-04-25T02:00:55.912Z,11.12
2023-04-25T02:06:01.210Z,11.06
2023-04-25T02:11:04.621Z,10.92
2023-04-25T02:16:14.257Z,10.76
2023-04-25T02:21:16.252Z,10.96
2023-04-25T02:26:18.856Z,10.89
2023-04-25T02:31:20.639Z,10.81
2023-04-25T02:36:22.247Z,10.80
2023-04-25T02:41:24.172Z,10.87
2023-04-25T02:46:38.379Z,10.84
2023-04-25T02:51:41.106Z,10.64
2023-04-25T02:56:43.172Z,10.45
2023-04-25T03:01:49.562Z,10.24
2023-04-25T03:06:51.725Z,10.56
2023-04-25T03:11:55.924Z,10.52
2023-04-25T03:16:58.572Z,10.63
2023-04-25T03:22:00.267Z,10.49
2023-04-25T03:27:02.359Z,10.64
2023-04-25T03:32:04.221Z,10.50
2023-04-25T03:37:05.873Z,10.42
2023-04-25T03:42:11.979Z,10.41
2023-04-25T03:47:13.583Z,10.36
2023-04-25T03:52:15.314Z,10.28
2023-04-25T03:57:17.127Z,10.21
2023-04-25T04:02:19.264Z,10.26
2023-04-25T04:07:21.690Z,10.28
2023-04-25T04:12:27.739Z,10.25
2023-04-25T04:17:29.535Z,10.35
2023-04-25T04:22:32.276Z,9.94
2023-04-25T04:27:39.077Z,10.32
2023-04-25T04:32:54.874Z,10.39
2023-04-25T04:37:57.287Z,10.51
2023-04-25T04:43:01.727Z,10.32
2023-04-25T04:48:09.584Z,10.25
2023-04-25T04:53:33.363Z,10.76
2023-04-25T04:58:53.414Z,10.69
2023-04-25T05:04:18.374Z,10.90
2023-04-25T05:09:38.390Z,10.86
2023-04-25T05:14:39.948Z,11.42
2023-04-25T05:20:05.174Z,11.13
2023-04-25T05:25:13.906Z,11.65
2023-04-25T05:30:40.799Z,11.62
2023-04-25T05:36:06.044Z,11.38
2023-04-25T05:41:08.348Z,11.76
2023-04-25T05:46:27.834Z,11.70
2023-04-25T05:51:57.653Z,11.86
2023-04-25T05:57:25.314Z,12.26
2023-04-25T06:02:28.173Z,12.20
2023-04-25T06:07:33.367Z,12.19
2023-04-25T06:12:35.069Z,12.31
2023-04-25T06:17:38.816Z,12.32
2023-04-25T06:22:41.403Z,12.52
2023-04-25T06:27:43.061Z,12.50
2023-04-25T06:32:44.954Z,12.44
2023-04-25T06:37:46.612Z,12.60
2023-04-25T06:42:48.309Z,12.64
2023-04-25T06:48:21.314Z,12.64
2023-04-25T06:53:23.202Z,12.79
2023-04-25T06:58:31.324Z,12.93
2023-04-25T07:03:44.634Z,13.06
2023-04-25T07:08:52.075Z,13.02
2023-04-25T07:13:54.342Z,13.39
2023-04-25T07:18:56.429Z,13.05
2023-04-25T07:23:58.610Z,12.99
2023-04-25T07:29:06.324Z,12.92
2023-04-25T07:34:09.019Z,13.37
2023-04-25T07:39:14.072Z,13.37
2023-04-25T07:44:16.242Z,12.77
2023-04-25T07:49:18.196Z,13.10
2023-04-25T07:54:20.287Z,13.28
2023-04-25T07:59:29.757Z,13.37
2023-04-25T08:04:33.495Z,12.99
2023-04-25T08:09:38.807Z,13.19
2023-04-25T08:14:45.335Z,13.66
2023-04-25T08:19:47.074Z,13.30
2023-04-25T08:24:58.145Z,13.36
2023-04-25T08:29:59.968Z,13.48
2023-04-25T08:35:01.634Z,13.99
2023-04-25T08:40:07.972Z,13.52
2023-04-25T08:45:18.845Z,13.57
2023-04-25T08:50:23.142Z,13.07
2023-04-25T08:55:27.295Z,13.20
2023-04-25T09:00:32.740Z,13.87
2023-04-25T09:05:35.346Z,13.42
2023-04-25T09:10:37.350Z,13.67
2023-04-25T09:15:53.172Z,13.61
2023-04-25T09:21:14.898Z,13.42
2023-04-25T09:26:21.475Z,13.45
2023-04-25T09:31:25.598Z,13.61
2023-04-25T09:36:31.679Z,13.11
2023-04-25T09:41:55.641Z,13.07
2023-04-25T09:46:58.071Z,13.01
2023-04-25T09:52:02.035Z,13.08
2023-04-25T09:57:16.945Z,13.16
2023-04-25T10:02:21.222Z,13.32
2023-04-25T10:07:27.636Z,13.48
2023-04-25T10:12:29.840Z,13.73
2023-04-25T10:17:32.611Z,13.58
2023-04-25T10:22:37.870Z,13.61
2023-04-25T10:27:40.507Z,13.10
2023-04-25T10:32:51.481Z,13.72
2023-04-25T10:38:13.494Z,13.08
2023-04-25T10:43:43.538Z,13.46
2023-04-25T10:48:55.997Z,13.54
2023-04-25T10:54:04.367Z,13.64
2023-04-25T10:59:16.713Z,13.14
2023-04-25T11:04:22.473Z,12.60
2023-04-25T11:09:25.347Z,13.00
2023-04-25T11:14:27.983Z,13.00
2023-04-25T11:19:30.014Z,13.04
2023-04-25T11:24:33.133Z,12.81
2023-04-25T11:29:35.686Z,12.80
2023-04-25T11:34:37.372Z,13.35
2023-04-25T11:39:39.107Z,12.82
2023-04-25T11:44:41.679Z,12.86
2023-04-25T11:49:43.273Z,12.54
2023-04-25T11:54:45.602Z,13.10
2023-04-25T11:59:47.446Z,13.03
2023-04-25T12:04:49.309Z,13.20
2023-04-25T12:09:53.666Z,13.30
2023-04-25T12:14:56.173Z,12.70
2023-04-25T12:19:57.860Z,12.85
2023-04-25T12:24:59.501Z,13.04
2023-04-25T12:30:01.470Z,13.19
2023-04-25T12:35:03.158Z,13.22
2023-04-25T12:40:05.330Z,13.16
2023-04-25T12:45:07.505Z,13.65
2023-04-25T12:50:09.604Z,13.11
2023-04-25T12:55:11.213Z,13.13
2023-04-25T13:00:15.758Z,13.14
2023-04-25T13:05:17.356Z,13.21
2023-04-25T13:10:19.051Z,13.07
2023-04-25T13:15:21.044Z,12.64
2023-04-25T13:20:23.456Z,12.28
2023-04-25T13:25:25.811Z,12.46
2023-04-25T13:30:27.381Z,12.35
2023-04-25T13:35:29.034Z,12.17
2023-04-25T13:40:30.654Z,12.19
2023-04-25T13:45:33.571Z,12.01
2023-04-25T13:50:35.364Z,11.92
2023-04-25T13:55:39.998Z,12.24
2023-04-25T14:00:44.115Z,12.12
2023-04-25T14:05:45.816Z,12.28
2023-04-25T14:10:47.400Z,12.09
2023-04-25T14:15:49.094Z,12.52
2023-04-25T14:20:50.727Z,12.65
2023-04-25T14:25:52.320Z,12.63
2023-04-25T14:30:53.968Z,12.62
2023-04-25T14:35:55.900Z,12.73
2023-04-25T14:40:57.555Z,12.53
2023-04-25T14:45:59.116Z,12.64
2023-04-25T14:51:01.333Z,12.43
2023-04-25T14:56:02.950Z,12.40
2023-04-25T15:01:04.658Z,12.72
2023-04-25T15:06:07.232Z,12.19
2023-04-25T15:11:08.824Z,12.32
2023-04-25T15:16:11.190Z,12.25
2023-04-25T15:21:12.796Z,12.31
2023-04-25T15:26:14.422Z,12.29
2023-04-25T15:31:16.001Z,12.21
2023-04-25T15:36:19.328Z,12.13
2023-04-25T15:41:21.195Z,12.22
2023-04-25T15:46:23.744Z,12.07
2023-04-25T15:51:25.551Z,11.99
2023-04-25T15:56:27.222Z,12.10
2023-04-25T16:01:31.068Z,12.03
2023-04-25T16:06:33.072Z,11.99
2023-04-25T16:11:34.761Z,12.12
2023-04-25T16:16:36.401Z,12.24
2023-04-25T16:21:38.379Z,12.19
2023-04-25T16:26:43.648Z,12.15
2023-04-25T16:31:47.155Z,12.29
2023-04-25T16:36:49.581Z,12.09
2023-04-25T16:41:52.018Z,11.76
2023-04-25T16:46:53.765Z,11.81
2023-04-25T16:51:55.915Z,11.59
2023-04-25T16:56:58.209Z,11.80
2023-04-25T17:01:59.946Z,11.83
2023-04-25T17:07:01.654Z,11.80
2023-04-25T17:12:04.010Z,11.83
2023-04-25T17:17:05.772Z,11.79
2023-04-25T17:22:07.470Z,11.82
2023-04-25T17:27:09.178Z,11.73
2023-04-25T17:32:10.935Z,11.76
2023-04-25T17:37:16.127Z,11.47
2023-04-25T17:42:17.707Z,11.46
2023-04-25T17:47:19.286Z,11.26
2023-04-25T17:52:20.905Z,11.20
2023-04-25T17:57:24.305Z,11.19
2023-04-25T18:02:27.066Z,11.29
2023-04-25T18:07:28.806Z,11.00
2023-04-25T18:12:30.450Z,11.10
2023-04-25T18:17:33.901Z,11.21
2023-04-25T18:22:37.059Z,11.22
2023-04-25T18:27:39.709Z,11.19
2023-04-25T18:32:42.147Z,11.13
2023-04-25T18:37:44.313Z,11.06
2023-04-25T18:42:45.991Z,11.02
2023-04-25T18:47:47.981Z,11.05
2023-04-25T18:52:49.713Z,10.77
2023-04-25T18:57:51.763Z,10.65
2023-04-25T19:02:55.984Z,10.71
2023-04-25T19:07:58.721Z,10.54
2023-04-25T19:13:00.624Z,10.42
2023-04-25T19:18:02.796Z,10.46
2023-04-25T19:23:05.325Z,10.37
2023-04-25T19:28:08.639Z,10.39
2023-04-25T19:33:10.960Z,10.29
2023-04-25T19:38:14.945Z,10.26
2023-04-25T19:43:16.540Z,10.29
2023-04-25T19:48:18.296Z,10.19
2023-04-25T19:53:20.102Z,10.04
2023-04-25T19:58:21.807Z,10.02
2023-04-25T20:03:24.196Z,10.07
2023-04-25T20:08:26.295Z,9.79
2023-04-25T20:13:28.273Z,9.78
2023-04-25T20:18:29.874Z,9.85
2023-04-25T20:23:31.443Z,9.83
2023-04-25T20:28:33.144Z,9.58
2023-04-25T20:33:37.654Z,9.60
2023-04-25T20:38:39.230Z,9.68
2023-04-25T20:43:42.232Z,9.49
2023-04-25T20:48:43.856Z,9.52
2023-04-25T20:53:45.489Z,9.57
2023-04-25T20:58:47.363Z,9.63
2023-04-25T21:03:50.474Z,9.59
2023-04-25T21:08:52.679Z,9.48
2023-04-25T21:13:54.599Z,9.42
2023-04-25T21:18:56.309Z,9.45
2023-04-25T21:23:57.938Z,9.42
2023-04-25T21:28:59.596Z,9.45
2023-04-25T21:34:01.321Z,9.39
2023-04-25T21:39:03.088Z,9.31
2023-04-25T21:44:04.825Z,9.33
2023-04-25T21:49:06.968Z,9.37
2023-04-25T21:54:08.750Z,9.30
2023-04-25T21:59:10.416Z,9.34
2023-04-25T22:04:13.743Z,9.52
2023-04-25T22:09:16.345Z,9.57
2023-04-25T22:14:17.927Z,9.53
2023-04-25T22:19:19.531Z,9.62
2023-04-25T22:24:21.620Z,9.67
2023-04-25T22:29:23.765Z,9.58
2023-04-25T22:34:25.399Z,9.57
2023-04-25T22:39:26.954Z,9.63
2023-04-25T22:44:28.553Z,9.49
2023-04-25T22:49:30.310Z,9.47
2023-04-25T22:54:32.077Z,9.59
2023-04-25T22:59:36.172Z,9.30
2023-04-25T23:04:37.791Z,9.26
2023-04-25T23:09:41.052Z,9.25
2023-04-25T23:14:42.795Z,9.39
2023-04-25T23:19:45.243Z,9.38
2023-04-25T23:24:46.819Z,9.35
2023-04-25T23:29:54.808Z,9.22
2023-04-25T23:34:56.833Z,9.28
2023-04-25T23:39:58.564Z,9.41
2023-04-25T23:45:01.405Z,9.39
2023-04-25T23:50:03.617Z,9.26
2023-04-25T23:55:05.701Z,9.44
